GAPXJ EGEN-EGPE
Flight info
| Callsign | GAPXJ |
|---|---|
| Flight time | 1h 2m |
| Altitude | 8000 |
| Route | KWL DCT WIK DCT INS |
| Aircraft | PA24/L-VGD/A |
Departure
| Time | 2026-05-01 13:35 |
|---|---|
| Airport | North Ronaldsay Airport (EGEN) |
Arrival
| Time | 2026-05-01 14:38 |
|---|---|
| Airport | Inverness Airport (EGPE) |
| Time | Latitude | Longitude | Altitude | Speed | Heading |
|---|---|---|---|---|---|
| 2026-05-01 13:21 | 59.36839 | -2.43109 | 56 ft | 0 kts | 205° |
| 2026-05-01 13:33 | 59.36792 | -2.43102 | 54 ft | 2 kts | 144° |
| 2026-05-01 13:33 | 59.36841 | -2.43052 | 53 ft | 6 kts | 32° |
| 2026-05-01 13:34 | 59.36852 | -2.43043 | 55 ft | 0 kts | 204° |
| 2026-05-01 13:35 | 59.36383 | -2.43480 | 222 ft | 68 kts | 202° |
| 2026-05-01 13:35 | 59.35953 | -2.43901 | 525 ft | 73 kts | 206° |
| 2026-05-01 13:35 | 59.35002 | -2.44710 | 1078 ft | 73 kts | 204° |
| 2026-05-01 13:36 | 59.34527 | -2.45096 | 1279 ft | 76 kts | 204° |
| 2026-05-01 13:36 | 59.34032 | -2.45495 | 1479 ft | 78 kts | 204° |
| 2026-05-01 13:36 | 59.32978 | -2.46212 | 1862 ft | 83 kts | 206° |
| 2026-05-01 13:37 | 59.32418 | -2.46603 | 2014 ft | 88 kts | 206° |
| 2026-05-01 13:37 | 59.31824 | -2.47022 | 2152 ft | 92 kts | 201° |
| 2026-05-01 13:37 | 59.31194 | -2.47409 | 2299 ft | 98 kts | 207° |
| 2026-05-01 13:37 | 59.30563 | -2.47989 | 2419 ft | 103 kts | 208° |
| 2026-05-01 13:38 | 59.29173 | -2.49252 | 2494 ft | 118 kts | 208° |
| 2026-05-01 13:38 | 59.28414 | -2.49949 | 2485 ft | 123 kts | 208° |
| 2026-05-01 13:38 | 59.27623 | -2.50670 | 2484 ft | 127 kts | 207° |
| 2026-05-01 13:39 | 59.26816 | -2.51411 | 2488 ft | 128 kts | 207° |
| 2026-05-01 13:39 | 59.25994 | -2.52161 | 2487 ft | 133 kts | 207° |
| 2026-05-01 13:39 | 59.25167 | -2.52915 | 2627 ft | 121 kts | 206° |
| 2026-05-01 13:39 | 59.24447 | -2.53547 | 2888 ft | 111 kts | 208° |
| 2026-05-01 13:40 | 59.23768 | -2.54190 | 3182 ft | 106 kts | 209° |
| 2026-05-01 13:40 | 59.23137 | -2.54863 | 3418 ft | 101 kts | 212° |
| 2026-05-01 13:40 | 59.22539 | -2.55562 | 3630 ft | 99 kts | 213° |
| 2026-05-01 13:40 | 59.21959 | -2.56260 | 3839 ft | 98 kts | 214° |
| 2026-05-01 13:41 | 59.21385 | -2.56971 | 4022 ft | 96 kts | 215° |
| 2026-05-01 13:41 | 59.20829 | -2.57678 | 4204 ft | 97 kts | 216° |
| 2026-05-01 13:41 | 59.20270 | -2.58405 | 4425 ft | 95 kts | 217° |
| 2026-05-01 13:41 | 59.19728 | -2.59117 | 4615 ft | 97 kts | 217° |
| 2026-05-01 13:42 | 59.19168 | -2.59853 | 4819 ft | 96 kts | 217° |
| 2026-05-01 13:42 | 59.18618 | -2.60576 | 5010 ft | 96 kts | 217° |
| 2026-05-01 13:42 | 59.18069 | -2.61293 | 5209 ft | 95 kts | 218° |
| 2026-05-01 13:42 | 59.17516 | -2.62009 | 5380 ft | 96 kts | 218° |
| 2026-05-01 13:43 | 59.16962 | -2.62729 | 5569 ft | 95 kts | 218° |
| 2026-05-01 13:43 | 59.16409 | -2.63448 | 5741 ft | 96 kts | 218° |
| 2026-05-01 13:43 | 59.15856 | -2.64168 | 5926 ft | 95 kts | 218° |
| 2026-05-01 13:43 | 59.15298 | -2.64889 | 6099 ft | 96 kts | 219° |
| 2026-05-01 13:44 | 59.14740 | -2.65608 | 6306 ft | 96 kts | 219° |
| 2026-05-01 13:44 | 59.14181 | -2.66324 | 6474 ft | 96 kts | 219° |
| 2026-05-01 13:44 | 59.13621 | -2.67041 | 6639 ft | 96 kts | 219° |
| 2026-05-01 13:44 | 59.13071 | -2.67747 | 6805 ft | 94 kts | 219° |
| 2026-05-01 13:45 | 59.12541 | -2.68428 | 7023 ft | 90 kts | 219° |
| 2026-05-01 13:45 | 59.12019 | -2.69087 | 7207 ft | 89 kts | 218° |
| 2026-05-01 13:45 | 59.11494 | -2.69748 | 7369 ft | 90 kts | 219° |
| 2026-05-01 13:45 | 59.10973 | -2.70418 | 7549 ft | 89 kts | 219° |
| 2026-05-01 13:46 | 59.10452 | -2.71090 | 7711 ft | 90 kts | 219° |
| 2026-05-01 13:46 | 59.09927 | -2.71762 | 7876 ft | 90 kts | 218° |
| 2026-05-01 13:46 | 59.09399 | -2.72439 | 8015 ft | 93 kts | 218° |
| 2026-05-01 13:46 | 59.08841 | -2.73161 | 8091 ft | 102 kts | 219° |
| 2026-05-01 13:47 | 59.08227 | -2.73968 | 8112 ft | 111 kts | 218° |
| 2026-05-01 13:47 | 59.07558 | -2.74838 | 8095 ft | 120 kts | 217° |
| 2026-05-01 13:47 | 59.06850 | -2.75734 | 8089 ft | 121 kts | 217° |
| 2026-05-01 13:47 | 59.06155 | -2.76603 | 8090 ft | 120 kts | 217° |
| 2026-05-01 13:48 | 59.05459 | -2.77469 | 8080 ft | 119 kts | 217° |
| 2026-05-01 13:48 | 59.04768 | -2.78331 | 8090 ft | 118 kts | 217° |
| 2026-05-01 13:48 | 59.04087 | -2.79183 | 8090 ft | 116 kts | 217° |
| 2026-05-01 13:48 | 59.03406 | -2.80036 | 8096 ft | 117 kts | 217° |
| 2026-05-01 13:49 | 59.02719 | -2.80898 | 8098 ft | 118 kts | 217° |
| 2026-05-01 13:49 | 59.02031 | -2.81768 | 8098 ft | 118 kts | 217° |
| 2026-05-01 13:49 | 59.01339 | -2.82638 | 8099 ft | 119 kts | 217° |
| 2026-05-01 13:49 | 59.00640 | -2.83517 | 8104 ft | 120 kts | 217° |
| 2026-05-01 13:50 | 58.99940 | -2.84398 | 8102 ft | 120 kts | 217° |
| 2026-05-01 13:50 | 58.99240 | -2.85280 | 8101 ft | 120 kts | 217° |
| 2026-05-01 13:50 | 58.98538 | -2.86162 | 8095 ft | 120 kts | 217° |
| 2026-05-01 13:50 | 58.97837 | -2.87041 | 8094 ft | 120 kts | 217° |
| 2026-05-01 13:51 | 58.97129 | -2.87896 | 8095 ft | 120 kts | 216° |
| 2026-05-01 13:51 | 58.96416 | -2.88743 | 8094 ft | 120 kts | 214° |
| 2026-05-01 13:51 | 58.95666 | -2.89469 | 8094 ft | 121 kts | 209° |
| 2026-05-01 13:51 | 58.94882 | -2.90081 | 8092 ft | 122 kts | 205° |
| 2026-05-01 13:52 | 58.94069 | -2.90570 | 8093 ft | 122 kts | 202° |
| 2026-05-01 13:52 | 58.93242 | -2.90977 | 8095 ft | 123 kts | 200° |
| 2026-05-01 13:52 | 58.92397 | -2.91213 | 8096 ft | 126 kts | 195° |
| 2026-05-01 13:52 | 58.91538 | -2.91490 | 8102 ft | 125 kts | 197° |
| 2026-05-01 13:53 | 58.90683 | -2.91800 | 8100 ft | 125 kts | 198° |
| 2026-05-01 13:53 | 58.88973 | -2.92459 | 8097 ft | 125 kts | 198° |
| 2026-05-01 13:53 | 58.88123 | -2.92791 | 8094 ft | 124 kts | 198° |
| 2026-05-01 13:54 | 58.87274 | -2.93123 | 8091 ft | 124 kts | 198° |
| 2026-05-01 13:54 | 58.86422 | -2.93458 | 8092 ft | 124 kts | 198° |
| 2026-05-01 13:54 | 58.85575 | -2.93797 | 8093 ft | 124 kts | 198° |
| 2026-05-01 13:54 | 58.84726 | -2.94135 | 8099 ft | 125 kts | 198° |
| 2026-05-01 13:55 | 58.83876 | -2.94484 | 8096 ft | 125 kts | 199° |
| 2026-05-01 13:55 | 58.83038 | -2.94831 | 8096 ft | 124 kts | 198° |
| 2026-05-01 13:55 | 58.82188 | -2.95176 | 8095 ft | 126 kts | 198° |
| 2026-05-01 13:55 | 58.81335 | -2.95524 | 8097 ft | 125 kts | 198° |
| 2026-05-01 13:56 | 58.80482 | -2.95875 | 8094 ft | 125 kts | 198° |
| 2026-05-01 13:56 | 58.79628 | -2.96224 | 8093 ft | 126 kts | 198° |
| 2026-05-01 13:56 | 58.78768 | -2.96581 | 8095 ft | 126 kts | 199° |
| 2026-05-01 13:56 | 58.77909 | -2.96934 | 8095 ft | 126 kts | 198° |
| 2026-05-01 13:57 | 58.77051 | -2.97286 | 8092 ft | 126 kts | 198° |
| 2026-05-01 13:57 | 58.76480 | -2.97523 | 8094 ft | 128 kts | 198° |
| 2026-05-01 13:57 | 58.75318 | -2.98003 | 8093 ft | 127 kts | 198° |
| 2026-05-01 13:57 | 58.74445 | -2.98365 | 8090 ft | 128 kts | 199° |
| 2026-05-01 13:58 | 58.73577 | -2.98724 | 8087 ft | 127 kts | 198° |
| 2026-05-01 13:58 | 58.72726 | -2.99069 | 8088 ft | 126 kts | 198° |
| 2026-05-01 13:58 | 58.71866 | -2.99415 | 8085 ft | 126 kts | 198° |
| 2026-05-01 13:58 | 58.71011 | -2.99765 | 8090 ft | 126 kts | 198° |
| 2026-05-01 13:59 | 58.70151 | -3.00123 | 8091 ft | 127 kts | 198° |
| 2026-05-01 13:59 | 58.69284 | -3.00482 | 8090 ft | 128 kts | 198° |
| 2026-05-01 13:59 | 58.68415 | -3.00838 | 8092 ft | 127 kts | 198° |
| 2026-05-01 13:59 | 58.67554 | -3.01190 | 8086 ft | 126 kts | 198° |
| 2026-05-01 14:00 | 58.66696 | -3.01542 | 8088 ft | 126 kts | 198° |
| 2026-05-01 14:00 | 58.65841 | -3.01896 | 8087 ft | 125 kts | 198° |
| 2026-05-01 14:00 | 58.64990 | -3.02246 | 8089 ft | 125 kts | 198° |
| 2026-05-01 14:00 | 58.64139 | -3.02596 | 8093 ft | 125 kts | 198° |
| 2026-05-01 14:01 | 58.63288 | -3.02955 | 8091 ft | 125 kts | 198° |
| 2026-05-01 14:01 | 58.62433 | -3.03299 | 8087 ft | 125 kts | 198° |
| 2026-05-01 14:01 | 58.61585 | -3.03636 | 8092 ft | 124 kts | 198° |
| 2026-05-01 14:01 | 58.60736 | -3.03982 | 8094 ft | 125 kts | 198° |
| 2026-05-01 14:02 | 58.59889 | -3.04338 | 8095 ft | 124 kts | 198° |
| 2026-05-01 14:02 | 58.59043 | -3.04682 | 8102 ft | 125 kts | 198° |
| 2026-05-01 14:02 | 58.58194 | -3.05027 | 8099 ft | 125 kts | 198° |
| 2026-05-01 14:02 | 58.57343 | -3.05373 | 8096 ft | 125 kts | 198° |
| 2026-05-01 14:03 | 58.56493 | -3.05719 | 8095 ft | 125 kts | 198° |
| 2026-05-01 14:03 | 58.55656 | -3.06062 | 8094 ft | 125 kts | 198° |
| 2026-05-01 14:03 | 58.54797 | -3.06412 | 8095 ft | 125 kts | 198° |
| 2026-05-01 14:03 | 58.53948 | -3.06757 | 8094 ft | 125 kts | 198° |
| 2026-05-01 14:04 | 58.53109 | -3.07098 | 8095 ft | 125 kts | 198° |
| 2026-05-01 14:04 | 58.52262 | -3.07444 | 8095 ft | 124 kts | 198° |
| 2026-05-01 14:04 | 58.51417 | -3.07788 | 8096 ft | 124 kts | 198° |
| 2026-05-01 14:04 | 58.50857 | -3.08017 | 8095 ft | 124 kts | 198° |
| 2026-05-01 14:05 | 58.49724 | -3.08478 | 8097 ft | 124 kts | 198° |
| 2026-05-01 14:05 | 58.48879 | -3.08821 | 8096 ft | 124 kts | 198° |
| 2026-05-01 14:05 | 58.48033 | -3.09163 | 8097 ft | 124 kts | 198° |
| 2026-05-01 14:05 | 58.47187 | -3.09507 | 8101 ft | 124 kts | 198° |
| 2026-05-01 14:06 | 58.46340 | -3.09866 | 8101 ft | 125 kts | 200° |
| 2026-05-01 14:06 | 58.45491 | -3.10224 | 8101 ft | 125 kts | 197° |
| 2026-05-01 14:06 | 58.44681 | -3.10797 | 8093 ft | 126 kts | 220° |
| 2026-05-01 14:06 | 58.44067 | -3.11924 | 8106 ft | 122 kts | 223° |
| 2026-05-01 14:07 | 58.43356 | -3.12815 | 8100 ft | 123 kts | 210° |
| 2026-05-01 14:07 | 58.42598 | -3.13599 | 8099 ft | 124 kts | 215° |
| 2026-05-01 14:07 | 58.41839 | -3.14409 | 8101 ft | 127 kts | 212° |
| 2026-05-01 14:08 | 58.40261 | -3.16071 | 8100 ft | 130 kts | 212° |
| 2026-05-01 14:08 | 58.39473 | -3.16898 | 8097 ft | 129 kts | 212° |
| 2026-05-01 14:08 | 58.38688 | -3.17715 | 8094 ft | 128 kts | 212° |
| 2026-05-01 14:08 | 58.37914 | -3.18524 | 8093 ft | 126 kts | 212° |
| 2026-05-01 14:09 | 58.37154 | -3.19315 | 8091 ft | 124 kts | 212° |
| 2026-05-01 14:09 | 58.36404 | -3.20094 | 8092 ft | 123 kts | 212° |
| 2026-05-01 14:09 | 58.35667 | -3.20867 | 8093 ft | 122 kts | 212° |
| 2026-05-01 14:09 | 58.34918 | -3.21644 | 8092 ft | 123 kts | 212° |
| 2026-05-01 14:10 | 58.34173 | -3.22435 | 8091 ft | 123 kts | 212° |
| 2026-05-01 14:10 | 58.33425 | -3.23213 | 8094 ft | 122 kts | 212° |
| 2026-05-01 14:10 | 58.32674 | -3.23987 | 8094 ft | 123 kts | 212° |
| 2026-05-01 14:10 | 58.31926 | -3.24764 | 8094 ft | 123 kts | 212° |
| 2026-05-01 14:11 | 58.31178 | -3.25548 | 8093 ft | 123 kts | 212° |
| 2026-05-01 14:11 | 58.29679 | -3.27108 | 8087 ft | 123 kts | 212° |
| 2026-05-01 14:11 | 58.29183 | -3.27618 | 8087 ft | 122 kts | 212° |
| 2026-05-01 14:12 | 58.28437 | -3.28401 | 8088 ft | 122 kts | 212° |
| 2026-05-01 14:12 | 58.27452 | -3.29444 | 8087 ft | 122 kts | 212° |
| 2026-05-01 14:12 | 58.26712 | -3.30223 | 8088 ft | 121 kts | 212° |
| 2026-05-01 14:12 | 58.25973 | -3.30995 | 8089 ft | 121 kts | 212° |
| 2026-05-01 14:13 | 58.25481 | -3.31506 | 8086 ft | 121 kts | 212° |
| 2026-05-01 14:13 | 58.24736 | -3.32288 | 8087 ft | 121 kts | 212° |
| 2026-05-01 14:13 | 58.24007 | -3.33047 | 8086 ft | 121 kts | 212° |
| 2026-05-01 14:13 | 58.23267 | -3.33815 | 8086 ft | 121 kts | 212° |
| 2026-05-01 14:14 | 58.22528 | -3.34586 | 8086 ft | 121 kts | 212° |
| 2026-05-01 14:14 | 58.21787 | -3.35359 | 8087 ft | 121 kts | 212° |
| 2026-05-01 14:14 | 58.21048 | -3.36129 | 8088 ft | 121 kts | 212° |
| 2026-05-01 14:14 | 58.20311 | -3.36898 | 8089 ft | 121 kts | 212° |
| 2026-05-01 14:15 | 58.19572 | -3.37669 | 8086 ft | 121 kts | 212° |
| 2026-05-01 14:15 | 58.18831 | -3.38439 | 8084 ft | 121 kts | 212° |
| 2026-05-01 14:15 | 58.18091 | -3.39209 | 8086 ft | 121 kts | 212° |
| 2026-05-01 14:15 | 58.17352 | -3.39979 | 8084 ft | 121 kts | 212° |
| 2026-05-01 14:16 | 58.16614 | -3.40748 | 8085 ft | 121 kts | 212° |
| 2026-05-01 14:16 | 58.15875 | -3.41516 | 8086 ft | 121 kts | 212° |
| 2026-05-01 14:16 | 58.15137 | -3.42283 | 8083 ft | 121 kts | 212° |
| 2026-05-01 14:16 | 58.14409 | -3.43038 | 8083 ft | 121 kts | 212° |
| 2026-05-01 14:17 | 58.13662 | -3.43816 | 8086 ft | 121 kts | 212° |
| 2026-05-01 14:17 | 58.12923 | -3.44584 | 8087 ft | 121 kts | 212° |
| 2026-05-01 14:17 | 58.12191 | -3.45344 | 8088 ft | 121 kts | 212° |
| 2026-05-01 14:17 | 58.11449 | -3.46110 | 8085 ft | 121 kts | 212° |
| 2026-05-01 14:18 | 58.10709 | -3.46880 | 8085 ft | 121 kts | 212° |
| 2026-05-01 14:18 | 58.09968 | -3.47652 | 8088 ft | 121 kts | 212° |
| 2026-05-01 14:18 | 58.09227 | -3.48417 | 8088 ft | 122 kts | 212° |
| 2026-05-01 14:18 | 58.08734 | -3.48927 | 8090 ft | 122 kts | 212° |
| 2026-05-01 14:19 | 58.07734 | -3.49963 | 8091 ft | 122 kts | 212° |
| 2026-05-01 14:19 | 58.06986 | -3.50738 | 8088 ft | 122 kts | 212° |
| 2026-05-01 14:19 | 58.06243 | -3.51510 | 8090 ft | 122 kts | 212° |
| 2026-05-01 14:19 | 58.05502 | -3.52277 | 8086 ft | 122 kts | 212° |
| 2026-05-01 14:20 | 58.04769 | -3.53037 | 8089 ft | 122 kts | 212° |
| 2026-05-01 14:20 | 58.03271 | -3.54583 | 8089 ft | 124 kts | 212° |
| 2026-05-01 14:20 | 58.02514 | -3.55367 | 8090 ft | 125 kts | 212° |
| 2026-05-01 14:21 | 58.01752 | -3.56153 | 8089 ft | 125 kts | 211° |
| 2026-05-01 14:21 | 58.00993 | -3.56925 | 8085 ft | 124 kts | 212° |
| 2026-05-01 14:21 | 58.00245 | -3.57715 | 8083 ft | 123 kts | 212° |
| 2026-05-01 14:22 | 57.98766 | -3.59301 | 8083 ft | 122 kts | 213° |
| 2026-05-01 14:22 | 57.98034 | -3.60097 | 8081 ft | 121 kts | 213° |
| 2026-05-01 14:22 | 57.97302 | -3.60889 | 8081 ft | 121 kts | 213° |
| 2026-05-01 14:22 | 57.96573 | -3.61674 | 8083 ft | 121 kts | 212° |
| 2026-05-01 14:23 | 57.95840 | -3.62456 | 8082 ft | 121 kts | 212° |
| 2026-05-01 14:23 | 57.95111 | -3.63223 | 8069 ft | 119 kts | 212° |
| 2026-05-01 14:23 | 57.94383 | -3.63977 | 7927 ft | 121 kts | 212° |
| 2026-05-01 14:23 | 57.93626 | -3.64754 | 7732 ft | 126 kts | 211° |
| 2026-05-01 14:24 | 57.92858 | -3.65538 | 7553 ft | 127 kts | 211° |
| 2026-05-01 14:24 | 57.92079 | -3.66331 | 7383 ft | 127 kts | 211° |
| 2026-05-01 14:24 | 57.91300 | -3.67120 | 7205 ft | 128 kts | 211° |
| 2026-05-01 14:24 | 57.90516 | -3.67909 | 7064 ft | 126 kts | 211° |
| 2026-05-01 14:25 | 57.89734 | -3.68693 | 6848 ft | 131 kts | 211° |
| 2026-05-01 14:25 | 57.88913 | -3.69515 | 6609 ft | 135 kts | 210° |
| 2026-05-01 14:25 | 57.88069 | -3.70358 | 6322 ft | 140 kts | 210° |
| 2026-05-01 14:25 | 57.87211 | -3.71207 | 6111 ft | 138 kts | 210° |
| 2026-05-01 14:26 | 57.86377 | -3.72038 | 5863 ft | 137 kts | 211° |
| 2026-05-01 14:26 | 57.84699 | -3.73728 | 5350 ft | 137 kts | 211° |
| 2026-05-01 14:26 | 57.83859 | -3.74574 | 5109 ft | 137 kts | 211° |
| 2026-05-01 14:27 | 57.83021 | -3.75422 | 4878 ft | 137 kts | 211° |
| 2026-05-01 14:27 | 57.82183 | -3.76260 | 4632 ft | 136 kts | 211° |
| 2026-05-01 14:27 | 57.81348 | -3.77106 | 4383 ft | 136 kts | 211° |
| 2026-05-01 14:28 | 57.79696 | -3.78789 | 3903 ft | 136 kts | 211° |
| 2026-05-01 14:28 | 57.78870 | -3.79631 | 3669 ft | 135 kts | 210° |
| 2026-05-01 14:28 | 57.78043 | -3.80470 | 3437 ft | 135 kts | 210° |
| 2026-05-01 14:28 | 57.77217 | -3.81301 | 3212 ft | 135 kts | 210° |
| 2026-05-01 14:29 | 57.76391 | -3.82126 | 2987 ft | 134 kts | 210° |
| 2026-05-01 14:29 | 57.75567 | -3.82954 | 2765 ft | 134 kts | 210° |
| 2026-05-01 14:30 | 57.73119 | -3.85394 | 2115 ft | 133 kts | 209° |
| 2026-05-01 14:30 | 57.72301 | -3.86213 | 1927 ft | 133 kts | 209° |
| 2026-05-01 14:30 | 57.71506 | -3.87012 | 1897 ft | 124 kts | 208° |
| 2026-05-01 14:31 | 57.70079 | -3.88428 | 1882 ft | 110 kts | 209° |
| 2026-05-01 14:31 | 57.69406 | -3.89088 | 1902 ft | 109 kts | 209° |
| 2026-05-01 14:31 | 57.68728 | -3.89736 | 1900 ft | 110 kts | 208° |
| 2026-05-01 14:31 | 57.68045 | -3.90394 | 1900 ft | 110 kts | 208° |
| 2026-05-01 14:32 | 57.67348 | -3.91056 | 1835 ft | 115 kts | 208° |
| 2026-05-01 14:32 | 57.66649 | -3.91724 | 1819 ft | 114 kts | 209° |
| 2026-05-01 14:32 | 57.65938 | -3.92391 | 1754 ft | 114 kts | 206° |
| 2026-05-01 14:32 | 57.65230 | -3.93030 | 1690 ft | 113 kts | 207° |
| 2026-05-01 14:33 | 57.64498 | -3.93583 | 1604 ft | 115 kts | 189° |
| 2026-05-01 14:33 | 57.63729 | -3.93207 | 1534 ft | 120 kts | 150° |
| 2026-05-01 14:33 | 57.63102 | -3.92142 | 1517 ft | 121 kts | 140° |
| 2026-05-01 14:33 | 57.62491 | -3.91050 | 1469 ft | 123 kts | 142° |
| 2026-05-01 14:34 | 57.61731 | -3.90485 | 1470 ft | 117 kts | 184° |
| 2026-05-01 14:34 | 57.60947 | -3.90943 | 1369 ft | 119 kts | 211° |
| 2026-05-01 14:34 | 57.60304 | -3.91853 | 1359 ft | 114 kts | 221° |
| 2026-05-01 14:34 | 57.59752 | -3.92881 | 1328 ft | 114 kts | 226° |
| 2026-05-01 14:35 | 57.59223 | -3.93937 | 1229 ft | 107 kts | 228° |
| 2026-05-01 14:35 | 57.58743 | -3.94961 | 1098 ft | 101 kts | 229° |
| 2026-05-01 14:35 | 57.58304 | -3.95945 | 1020 ft | 99 kts | 230° |
| 2026-05-01 14:35 | 57.57881 | -3.96912 | 948 ft | 93 kts | 230° |
| 2026-05-01 14:36 | 57.57460 | -3.97795 | 831 ft | 89 kts | 227° |
| 2026-05-01 14:36 | 57.57064 | -3.98667 | 713 ft | 87 kts | 230° |
| 2026-05-01 14:36 | 57.56679 | -3.99477 | 630 ft | 80 kts | 231° |
| 2026-05-01 14:36 | 57.56335 | -4.00234 | 550 ft | 74 kts | 230° |
| 2026-05-01 14:37 | 57.55995 | -4.00958 | 458 ft | 75 kts | 231° |
| 2026-05-01 14:37 | 57.55657 | -4.01698 | 361 ft | 73 kts | 231° |
| 2026-05-01 14:37 | 57.55337 | -4.02395 | 247 ft | 71 kts | 231° |
| 2026-05-01 14:37 | 57.55010 | -4.03110 | 147 ft | 75 kts | 231° |
| 2026-05-01 14:38 | 57.54672 | -4.03841 | 34 ft | 68 kts | 233° |
| 2026-05-01 14:38 | 57.54431 | -4.04364 | 28 ft | 40 kts | 230° |
| 2026-05-01 14:38 | 57.54304 | -4.04642 | 30 ft | 22 kts | 228° |
| 2026-05-01 14:38 | 57.54250 | -4.04854 | 28 ft | 17 kts | 286° |
| 2026-05-01 14:39 | 57.54284 | -4.05042 | 29 ft | 15 kts | 289° |
| 2026-05-01 14:39 | 57.54322 | -4.05239 | 31 ft | 17 kts | 290° |
| 2026-05-01 14:39 | 57.54366 | -4.05463 | 31 ft | 19 kts | 290° |
| 2026-05-01 14:39 | 57.54413 | -4.05711 | 30 ft | 21 kts | 289° |
| 2026-05-01 14:40 | 57.54456 | -4.05935 | 33 ft | 12 kts | 291° |
| 2026-05-01 14:40 | 57.54438 | -4.06093 | 34 ft | 15 kts | 229° |
| 2026-05-01 14:40 | 57.54393 | -4.06192 | 34 ft | 9 kts | 226° |
| 2026-05-01 14:40 | 57.54383 | -4.06283 | 34 ft | 5 kts | 274° |
| 2026-05-01 14:41 | 57.54386 | -4.06302 | 34 ft | 0 kts | 350° |
| 2026-05-01 14:41 | 57.54390 | -4.06302 | 34 ft | 0 kts | 8° |